createdAt,value
2023-10-13T00:00:12.893Z,1.3
2023-10-13T00:02:05.602Z,1.4
2023-10-13T00:04:02.795Z,1.6
2023-10-13T00:06:03.610Z,1.5
2023-10-13T00:08:04.323Z,1.6
2023-10-13T00:10:05.181Z,1.5
2023-10-13T00:12:04.297Z,1.5
2023-10-13T00:14:03.822Z,1.4
2023-10-13T00:16:04.081Z,1.4
2023-10-13T00:18:04.607Z,1.3
2023-10-13T00:20:11.789Z,1.5
2023-10-13T00:22:09.780Z,1.4
2023-10-13T00:24:06.492Z,1.4
2023-10-13T00:26:04.153Z,1.5
2023-10-13T00:28:02.511Z,1.3
2023-10-13T00:30:15.884Z,1.3
2023-10-13T00:32:03.197Z,1.3
2023-10-13T00:34:11.614Z,1.4
2023-10-13T00:36:03.181Z,1.2
2023-10-13T00:38:05.098Z,1.3
2023-10-13T00:40:12.935Z,1.2
2023-10-13T00:42:07.711Z,1.3
2023-10-13T00:44:08.079Z,1.3
2023-10-13T00:46:08.464Z,1.3
2023-10-13T00:48:02.957Z,1.4
2023-10-13T00:50:04.089Z,1.4
2023-10-13T00:52:03.310Z,1.5
2023-10-13T00:54:08.375Z,1.3
2023-10-13T00:56:07.784Z,1.7
2023-10-13T00:58:03.850Z,1.5
2023-10-13T01:00:12.897Z,1.5
2023-10-13T01:02:13.050Z,1.6
2023-10-13T01:04:05.418Z,1.4
2023-10-13T01:06:04.244Z,1.5
2023-10-13T01:08:03.972Z,1.9
2023-10-13T01:10:05.029Z,2.7
2023-10-13T01:12:02.908Z,3.2
2023-10-13T01:14:04.651Z,3.3
2023-10-13T01:16:03.234Z,3.3
2023-10-13T01:18:12.984Z,3.6
2023-10-13T01:20:05.506Z,3.6
2023-10-13T01:22:03.315Z,3.2
2023-10-13T01:24:08.233Z,2.9
2023-10-13T01:26:05.888Z,2.9
2023-10-13T01:28:02.797Z,3.0
2023-10-13T01:30:10.645Z,2.5
2023-10-13T01:32:02.784Z,2.5
2023-10-13T01:34:02.475Z,2.2
2023-10-13T01:36:07.457Z,2.0
2023-10-13T01:38:02.960Z,2.2
2023-10-13T01:40:02.929Z,2.2
2023-10-13T01:42:02.455Z,2.2
2023-10-13T01:44:03.141Z,2.7
2023-10-13T01:46:04.196Z,2.4
2023-10-13T01:48:04.683Z,2.0
2023-10-13T01:50:11.969Z,1.9
2023-10-13T01:52:04.144Z,2.2
2023-10-13T01:54:03.675Z,2.2
2023-10-13T01:56:06.192Z,2.3
2023-10-13T01:58:02.275Z,2.4
2023-10-13T02:00:12.895Z,1.8
2023-10-13T02:02:03.017Z,1.8
2023-10-13T02:04:04.284Z,1.8
2023-10-13T02:06:05.160Z,1.9
2023-10-13T02:08:03.668Z,2.2
2023-10-13T02:10:05.188Z,1.9
2023-10-13T02:12:02.466Z,1.7
2023-10-13T02:14:02.559Z,2.1
2023-10-13T02:16:04.797Z,1.8
2023-10-13T02:18:02.707Z,1.8
2023-10-13T02:20:08.574Z,1.7
2023-10-13T02:22:04.569Z,1.7
2023-10-13T02:24:04.835Z,2.0
2023-10-13T02:26:11.258Z,1.7
2023-10-13T02:28:03.279Z,2.0
2023-10-13T02:30:02.327Z,2.1
2023-10-13T02:32:05.261Z,1.7
2023-10-13T02:34:06.785Z,1.9
2023-10-13T02:36:05.352Z,1.8
2023-10-13T02:38:11.095Z,1.8
2023-10-13T02:40:03.496Z,2.1
2023-10-13T02:42:07.441Z,1.7
2023-10-13T02:44:06.385Z,1.6
2023-10-13T02:46:03.217Z,2.2
2023-10-13T02:48:12.917Z,2.1
2023-10-13T02:50:11.915Z,1.6
2023-10-13T02:52:09.614Z,1.7
2023-10-13T02:54:03.871Z,2.1
2023-10-13T02:56:06.812Z,1.8
2023-10-13T02:58:04.232Z,1.7
2023-10-13T03:00:11.892Z,2.1
2023-10-13T03:02:07.881Z,1.5
2023-10-13T03:04:09.206Z,1.6
2023-10-13T03:06:02.425Z,1.9
2023-10-13T03:08:05.052Z,1.9
2023-10-13T03:10:10.198Z,2.4
2023-10-13T03:12:02.317Z,1.9
2023-10-13T03:14:07.032Z,2.1
2023-10-13T03:16:04.705Z,1.7
2023-10-13T03:18:03.126Z,1.8
2023-10-13T03:20:05.887Z,2.1
2023-10-13T03:22:10.054Z,1.9
2023-10-13T03:24:05.159Z,1.9
2023-10-13T03:26:09.079Z,1.7
2023-10-13T03:28:05.218Z,1.8
2023-10-13T03:30:10.175Z,1.8
2023-10-13T03:32:07.618Z,1.6
2023-10-13T03:34:02.287Z,1.6
2023-10-13T03:36:06.363Z,1.6
2023-10-13T03:38:03.152Z,1.7
2023-10-13T03:40:07.073Z,1.9
2023-10-13T03:42:06.005Z,1.9
2023-10-13T03:44:10.417Z,1.7
2023-10-13T03:46:08.595Z,1.6
2023-10-13T03:48:09.368Z,1.8
2023-10-13T03:50:12.919Z,1.9
2023-10-13T03:52:03.095Z,1.7
2023-10-13T03:54:08.277Z,1.6
2023-10-13T03:56:13.094Z,1.8
2023-10-13T03:58:03.883Z,1.8
2023-10-13T04:00:09.318Z,1.7
2023-10-13T04:02:06.431Z,2.3
2023-10-13T04:04:04.714Z,2.0
2023-10-13T04:06:06.960Z,2.1
2023-10-13T04:08:12.991Z,1.9
2023-10-13T04:10:12.941Z,1.8
2023-10-13T04:12:13.897Z,2.0
2023-10-13T04:14:11.967Z,2.0
2023-10-13T04:16:13.021Z,2.0
2023-10-13T04:18:11.891Z,1.9
2023-10-13T04:20:12.918Z,2.1
2023-10-13T04:22:11.914Z,2.1
2023-10-13T04:24:12.932Z,2.3
2023-10-13T04:26:10.164Z,2.2
2023-10-13T04:28:14.696Z,2.0
2023-10-13T04:30:11.199Z,2.4
2023-10-13T04:32:03.424Z,2.0
2023-10-13T04:34:03.199Z,2.2
2023-10-13T04:36:14.363Z,2.4
2023-10-13T04:38:11.393Z,2.2
2023-10-13T04:40:10.428Z,1.9
2023-10-13T04:42:11.885Z,2.4
2023-10-13T04:44:05.707Z,2.0
2023-10-13T04:46:11.930Z,2.1
2023-10-13T04:48:13.940Z,2.4
2023-10-13T04:50:12.986Z,2.1
2023-10-13T04:52:13.254Z,2.1
2023-10-13T04:54:10.765Z,2.0
2023-10-13T04:56:12.943Z,2.0
2023-10-13T04:58:11.892Z,2.0
2023-10-13T05:00:15.919Z,2.3
2023-10-13T05:02:12.004Z,2.4
2023-10-13T05:04:12.963Z,2.2
2023-10-13T05:06:11.894Z,1.9
2023-10-13T05:08:12.928Z,2.0
2023-10-13T05:10:11.934Z,2.1
2023-10-13T05:12:11.911Z,1.9
2023-10-13T05:14:12.918Z,2.1
2023-10-13T05:16:12.957Z,2.1
2023-10-13T05:18:11.912Z,2.2
2023-10-13T05:20:12.919Z,2.1
2023-10-13T05:22:11.940Z,2.3
2023-10-13T05:24:12.879Z,1.9
2023-10-13T05:26:13.972Z,2.2
2023-10-13T05:28:26.504Z,2.4
2023-10-13T05:30:12.886Z,2.1
2023-10-13T05:32:13.026Z,2.0
2023-10-13T05:34:11.934Z,2.0
2023-10-13T05:36:11.885Z,2.5
2023-10-13T05:38:12.970Z,2.9
2023-10-13T05:40:12.915Z,2.2
2023-10-13T05:42:11.918Z,1.9
2023-10-13T05:44:12.939Z,1.9
2023-10-13T05:46:13.987Z,2.7
2023-10-13T05:48:12.000Z,2.4
2023-10-13T05:50:11.980Z,2.2
2023-10-13T05:52:08.717Z,2.3
2023-10-13T05:54:13.952Z,1.9
2023-10-13T05:56:14.930Z,2.5
2023-10-13T05:58:11.897Z,2.3
2023-10-13T06:00:11.901Z,2.7
2023-10-13T06:02:11.984Z,1.7
2023-10-13T06:04:13.028Z,2.3
2023-10-13T06:06:11.917Z,2.4
2023-10-13T06:08:12.922Z,2.3
2023-10-13T06:10:11.916Z,2.3
2023-10-13T06:12:11.897Z,2.5
2023-10-13T06:14:12.032Z,2.2
2023-10-13T06:16:16.938Z,1.8
2023-10-13T06:18:13.342Z,1.8
2023-10-13T06:20:12.942Z,2.8
2023-10-13T06:22:13.029Z,2.1
2023-10-13T06:24:12.882Z,2.0
2023-10-13T06:26:11.917Z,1.7
2023-10-13T06:28:12.893Z,2.0
2023-10-13T06:30:05.027Z,2.4
2023-10-13T06:32:02.961Z,2.0
2023-10-13T06:34:04.070Z,2.1
2023-10-13T06:36:04.177Z,2.0
2023-10-13T06:38:03.769Z,2.7
2023-10-13T06:40:06.989Z,2.7
2023-10-13T06:42:03.576Z,2.8
2023-10-13T06:44:05.760Z,3.0
2023-10-13T06:46:02.451Z,3.2
2023-10-13T06:48:02.365Z,3.3
2023-10-13T06:50:03.222Z,3.0
2023-10-13T06:52:03.306Z,2.6
2023-10-13T06:54:03.728Z,3.0
2023-10-13T06:56:03.663Z,2.6
2023-10-13T06:58:05.261Z,2.7
2023-10-13T07:00:08.389Z,2.7
2023-10-13T07:02:20.478Z,3.1
2023-10-13T07:04:03.585Z,3.0
2023-10-13T07:06:11.698Z,3.4
2023-10-13T07:08:05.090Z,3.6
2023-10-13T07:10:02.297Z,3.7
2023-10-13T07:12:04.441Z,4.3
2023-10-13T07:14:11.657Z,4.9
2023-10-13T07:16:14.922Z,4.1
2023-10-13T07:18:06.233Z,3.4
2023-10-13T07:20:11.933Z,3.1
2023-10-13T07:22:12.901Z,2.7
2023-10-13T07:24:08.720Z,2.7
2023-10-13T07:26:03.372Z,2.7
2023-10-13T07:28:04.305Z,3.0
2023-10-13T07:30:12.928Z,2.7
2023-10-13T07:32:03.797Z,2.6
2023-10-13T07:34:11.881Z,2.2
2023-10-13T07:36:11.593Z,2.2
2023-10-13T07:38:07.154Z,2.5
2023-10-13T07:40:09.903Z,3.5
2023-10-13T07:42:06.516Z,2.8
2023-10-13T07:44:05.224Z,2.8
2023-10-13T07:46:09.889Z,2.3
2023-10-13T07:48:08.081Z,1.9
2023-10-13T07:50:07.266Z,2.1
2023-10-13T07:52:14.015Z,2.5
2023-10-13T07:54:04.567Z,2.3
2023-10-13T07:56:05.620Z,2.1
2023-10-13T07:58:08.134Z,1.8
2023-10-13T08:00:10.878Z,2.2
2023-10-13T08:02:11.995Z,2.6
2023-10-13T08:04:06.150Z,1.8
2023-10-13T08:06:07.159Z,1.9
2023-10-13T08:08:04.769Z,1.8
2023-10-13T08:10:02.774Z,1.6
2023-10-13T08:12:05.965Z,1.9
2023-10-13T08:14:18.678Z,2.3
2023-10-13T08:16:07.747Z,2.0
2023-10-13T08:18:11.918Z,1.8
2023-10-13T08:20:12.690Z,2.2
2023-10-13T08:22:13.882Z,1.7
2023-10-13T08:24:07.403Z,1.8
2023-10-13T08:26:19.958Z,1.6
2023-10-13T08:28:12.877Z,2.4
2023-10-13T08:30:14.892Z,1.9
2023-10-13T08:32:13.043Z,1.7
2023-10-13T08:34:07.387Z,2.3
2023-10-13T08:36:11.895Z,2.7
2023-10-13T08:38:18.533Z,2.0
2023-10-13T08:40:27.253Z,2.2
2023-10-13T08:42:12.391Z,1.8
2023-10-13T08:44:06.096Z,1.8
2023-10-13T08:46:07.270Z,1.5
2023-10-13T08:48:08.270Z,2.2
2023-10-13T08:50:10.906Z,2.0
2023-10-13T08:52:16.337Z,1.7
2023-10-13T08:54:10.185Z,2.0
2023-10-13T08:56:07.123Z,1.6
2023-10-13T08:58:11.878Z,1.6
2023-10-13T09:00:11.881Z,1.8
2023-10-13T09:02:11.958Z,1.8
2023-10-13T09:04:14.785Z,1.6
2023-10-13T09:06:03.010Z,1.9
2023-10-13T09:08:09.573Z,1.7
2023-10-13T09:10:11.917Z,1.5
2023-10-13T09:12:09.631Z,1.6
2023-10-13T09:14:04.464Z,1.8
2023-10-13T09:16:17.573Z,1.5
2023-10-13T09:18:11.885Z,1.5
2023-10-13T09:20:13.977Z,1.8
2023-10-13T09:22:02.540Z,1.8
2023-10-13T09:24:11.882Z,2.2
2023-10-13T09:26:09.679Z,2.1
2023-10-13T09:28:10.637Z,2.0
2023-10-13T09:30:10.291Z,2.0
2023-10-13T09:32:04.606Z,1.9
2023-10-13T09:34:03.052Z,1.6
2023-10-13T09:36:05.213Z,1.9
2023-10-13T09:38:03.023Z,1.6
2023-10-13T09:40:07.651Z,1.9
2023-10-13T09:42:04.115Z,1.8
2023-10-13T09:44:04.320Z,1.9
2023-10-13T09:46:04.787Z,1.8
2023-10-13T09:48:07.185Z,1.9
2023-10-13T09:50:05.649Z,1.8
2023-10-13T09:52:02.918Z,1.9
2023-10-13T09:54:31.122Z,2.1
2023-10-13T09:56:17.903Z,1.8
2023-10-13T09:58:11.242Z,1.9
2023-10-13T10:00:21.897Z,2.0
2023-10-13T10:02:09.652Z,2.3
2023-10-13T10:04:16.766Z,2.1
2023-10-13T10:06:05.743Z,1.9
2023-10-13T10:08:02.692Z,1.9
2023-10-13T10:10:04.369Z,1.8
2023-10-13T10:12:19.567Z,1.9
2023-10-13T10:14:13.027Z,1.6
2023-10-13T10:16:14.824Z,1.8
2023-10-13T10:18:02.947Z,1.8
2023-10-13T10:20:12.910Z,1.8
2023-10-13T10:22:10.950Z,2.4
2023-10-13T10:24:11.958Z,1.9
2023-10-13T10:26:14.494Z,1.9
2023-10-13T10:28:05.727Z,1.9
2023-10-13T10:30:04.239Z,1.9
2023-10-13T10:32:14.301Z,2.2
2023-10-13T10:34:15.524Z,2.4
2023-10-13T10:36:03.205Z,2.4
2023-10-13T10:38:16.155Z,1.5
2023-10-13T10:40:08.431Z,1.5
2023-10-13T10:42:15.825Z,2.1
2023-10-13T10:44:09.282Z,2.1
2023-10-13T10:46:02.386Z,1.6
2023-10-13T10:48:11.919Z,2.2
2023-10-13T10:50:08.996Z,1.7
2023-10-13T10:52:04.717Z,1.7
2023-10-13T10:54:11.889Z,1.9
2023-10-13T10:56:21.947Z,1.8
2023-10-13T10:58:03.011Z,1.8
2023-10-13T11:00:11.772Z,1.8
2023-10-13T11:02:02.536Z,1.8
2023-10-13T11:04:08.685Z,1.5
2023-10-13T11:06:03.860Z,2.0
2023-10-13T11:08:03.826Z,1.8
2023-10-13T11:10:14.635Z,1.7
2023-10-13T11:12:15.556Z,1.4
2023-10-13T11:14:12.919Z,1.8
2023-10-13T11:16:03.739Z,2.2
2023-10-13T11:18:05.929Z,1.9
2023-10-13T11:20:16.371Z,1.8
2023-10-13T11:22:11.428Z,1.9
2023-10-13T11:24:09.384Z,1.8
2023-10-13T11:26:03.581Z,2.5
2023-10-13T11:28:18.047Z,2.3
2023-10-13T11:30:12.696Z,1.8
2023-10-13T11:32:03.573Z,1.7
2023-10-13T11:34:06.349Z,1.5
2023-10-13T11:36:03.994Z,1.6
2023-10-13T11:38:04.163Z,1.6
2023-10-13T11:40:10.211Z,1.7
2023-10-13T11:42:02.232Z,1.8
2023-10-13T11:44:12.896Z,1.5
2023-10-13T11:46:12.011Z,1.9
2023-10-13T11:48:03.283Z,1.6
2023-10-13T11:50:05.942Z,1.8
2023-10-13T11:52:14.609Z,1.8
2023-10-13T11:54:02.960Z,2.1
2023-10-13T11:56:09.022Z,2.1
2023-10-13T11:58:06.424Z,1.7
2023-10-13T12:00:11.870Z,1.6
2023-10-13T12:02:12.408Z,1.9
2023-10-13T12:04:14.440Z,1.9
2023-10-13T12:06:11.920Z,1.9
2023-10-13T12:08:07.981Z,1.9
2023-10-13T12:10:07.066Z,1.7
2023-10-13T12:12:04.950Z,1.7
2023-10-13T12:14:11.913Z,1.9
2023-10-13T12:16:08.995Z,1.9
2023-10-13T12:18:04.256Z,2.1
2023-10-13T12:20:05.709Z,2.1
2023-10-13T12:22:05.986Z,1.8
2023-10-13T12:24:02.297Z,2.1
2023-10-13T12:26:07.148Z,2.0
2023-10-13T12:28:14.159Z,1.9
2023-10-13T12:30:08.345Z,1.9
2023-10-13T12:32:08.406Z,1.8
2023-10-13T12:34:06.968Z,2.1
2023-10-13T12:36:07.317Z,2.6
2023-10-13T12:38:08.984Z,2.2
2023-10-13T12:40:12.902Z,2.0
2023-10-13T12:42:11.886Z,1.9
2023-10-13T12:44:11.965Z,1.8
2023-10-13T12:46:14.867Z,1.9
2023-10-13T12:48:12.132Z,2.0
2023-10-13T12:50:11.916Z,1.7
2023-10-13T12:52:03.029Z,1.9
2023-10-13T12:54:05.187Z,1.8
2023-10-13T12:56:04.554Z,1.8
2023-10-13T12:58:05.305Z,1.9
2023-10-13T13:00:14.219Z,2.0
2023-10-13T13:02:07.330Z,2.5
2023-10-13T13:04:04.422Z,2.0
2023-10-13T13:06:07.741Z,2.1
2023-10-13T13:08:03.210Z,2.2
2023-10-13T13:10:02.340Z,1.8
2023-10-13T13:12:06.478Z,1.9
2023-10-13T13:14:03.555Z,1.9
2023-10-13T13:16:04.142Z,2.2
2023-10-13T13:18:10.732Z,2.2
2023-10-13T13:20:11.319Z,1.9
2023-10-13T13:22:02.811Z,2.1
2023-10-13T13:24:04.636Z,2.0
2023-10-13T13:26:09.737Z,2.1
2023-10-13T13:28:06.189Z,1.7
2023-10-13T13:30:02.552Z,2.2
2023-10-13T13:32:05.737Z,1.9
2023-10-13T13:34:04.466Z,1.7
2023-10-13T13:36:04.782Z,1.9
2023-10-13T13:38:10.566Z,1.8
2023-10-13T13:40:14.943Z,1.8
2023-10-13T13:42:02.849Z,1.8
2023-10-13T13:44:12.015Z,1.7
2023-10-13T13:46:03.397Z,1.7
2023-10-13T13:48:08.265Z,1.5
2023-10-13T13:50:06.275Z,1.6
2023-10-13T13:52:05.470Z,1.8
2023-10-13T13:54:06.992Z,1.7
2023-10-13T13:56:03.672Z,1.8
2023-10-13T13:58:08.413Z,1.9
2023-10-13T14:00:02.286Z,2.0
2023-10-13T14:02:11.159Z,1.8
2023-10-13T14:04:03.997Z,1.7
2023-10-13T14:06:04.066Z,2.2
2023-10-13T14:08:02.453Z,2.1
2023-10-13T14:10:06.398Z,2.0
2023-10-13T14:12:11.916Z,1.7
2023-10-13T14:14:04.794Z,1.8
2023-10-13T14:16:02.511Z,2.0
2023-10-13T14:18:06.165Z,2.0
2023-10-13T14:20:09.728Z,2.0
2023-10-13T14:22:06.852Z,1.8
2023-10-13T14:24:03.299Z,1.7
2023-10-13T14:26:02.656Z,2.0
2023-10-13T14:28:02.852Z,2.0
2023-10-13T14:30:03.144Z,1.9
2023-10-13T14:32:02.894Z,1.8
2023-10-13T14:34:02.284Z,1.8
2023-10-13T14:36:05.157Z,2.0
2023-10-13T14:38:04.532Z,1.6
2023-10-13T14:40:03.405Z,1.8
2023-10-13T14:42:06.179Z,1.7
2023-10-13T14:44:05.751Z,1.8
2023-10-13T14:46:02.369Z,1.8
2023-10-13T14:48:02.363Z,1.7
2023-10-13T14:50:04.319Z,1.6
2023-10-13T14:52:03.152Z,1.9
2023-10-13T14:54:04.565Z,1.7
2023-10-13T14:56:05.676Z,1.9
2023-10-13T14:58:04.964Z,2.0
2023-10-13T15:00:03.035Z,1.8
2023-10-13T15:02:03.416Z,1.9
2023-10-13T15:04:02.534Z,1.9
2023-10-13T15:06:02.310Z,1.8
2023-10-13T15:08:04.382Z,1.5
2023-10-13T15:10:02.305Z,1.7
2023-10-13T15:12:06.174Z,2.0
2023-10-13T15:14:02.407Z,1.7
2023-10-13T15:16:06.266Z,2.0
2023-10-13T15:18:02.525Z,1.6
2023-10-13T15:20:03.670Z,1.9
2023-10-13T15:22:06.558Z,1.7
2023-10-13T15:24:04.667Z,1.8
2023-10-13T15:26:09.988Z,1.9
2023-10-13T15:28:03.053Z,1.9
2023-10-13T15:30:04.982Z,1.9
2023-10-13T15:32:05.841Z,1.9
2023-10-13T15:34:07.391Z,1.8
2023-10-13T15:36:04.187Z,1.7
2023-10-13T15:38:02.451Z,1.6
2023-10-13T15:40:04.631Z,1.7
2023-10-13T15:42:02.890Z,1.7
2023-10-13T15:44:03.095Z,1.6
2023-10-13T15:46:37.076Z,1.9
2023-10-13T15:48:17.632Z,2.2
2023-10-13T15:50:04.335Z,1.7
2023-10-13T15:52:04.449Z,1.8
2023-10-13T15:54:02.338Z,2.1
2023-10-13T15:56:07.047Z,1.7
2023-10-13T15:58:02.316Z,1.7
2023-10-13T16:00:02.544Z,1.8
2023-10-13T16:02:07.845Z,1.9
2023-10-13T16:04:11.157Z,1.6
2023-10-13T16:06:05.134Z,1.7
2023-10-13T16:08:04.224Z,1.9
2023-10-13T16:10:11.927Z,1.9
2023-10-13T16:12:02.310Z,2.0
2023-10-13T16:14:06.338Z,1.6
2023-10-13T16:16:02.749Z,1.8
2023-10-13T16:18:07.268Z,1.6
2023-10-13T16:20:05.545Z,1.7
2023-10-13T16:22:02.317Z,1.5
2023-10-13T16:24:02.753Z,1.6
2023-10-13T16:26:07.995Z,1.7
2023-10-13T16:28:02.852Z,1.8
2023-10-13T16:30:02.329Z,1.5
2023-10-13T16:32:03.354Z,1.7
2023-10-13T16:34:05.574Z,1.6
2023-10-13T16:36:05.983Z,1.7
2023-10-13T16:38:06.901Z,1.5
2023-10-13T16:40:05.410Z,1.6
2023-10-13T16:42:08.106Z,1.6
2023-10-13T16:44:09.739Z,1.8
2023-10-13T16:46:04.358Z,1.5
2023-10-13T16:48:02.379Z,1.7
2023-10-13T16:50:02.991Z,1.5
2023-10-13T16:52:03.192Z,1.4
2023-10-13T16:54:02.308Z,1.5
2023-10-13T16:56:03.308Z,1.7
2023-10-13T16:58:02.881Z,1.6
2023-10-13T17:00:06.959Z,1.8
2023-10-13T17:02:04.999Z,1.5
2023-10-13T17:04:05.170Z,1.4
2023-10-13T17:06:02.331Z,1.4
2023-10-13T17:08:03.472Z,1.6
2023-10-13T17:10:02.957Z,1.6
2023-10-13T17:12:02.297Z,1.4
2023-10-13T17:14:06.364Z,1.5
2023-10-13T17:16:12.513Z,1.7
2023-10-13T17:18:06.077Z,1.6
2023-10-13T17:20:06.230Z,1.6
2023-10-13T17:22:04.455Z,1.6
2023-10-13T17:24:02.512Z,1.6
2023-10-13T17:26:02.384Z,1.5
2023-10-13T17:28:05.158Z,1.5
2023-10-13T17:30:05.992Z,1.5
2023-10-13T17:32:03.449Z,1.6
2023-10-13T17:34:03.193Z,1.6
2023-10-13T17:36:04.642Z,1.4
2023-10-13T17:38:02.339Z,1.6
2023-10-13T17:40:03.860Z,1.7
2023-10-13T17:42:02.688Z,1.5
2023-10-13T17:44:03.183Z,1.4
2023-10-13T17:46:07.981Z,1.7
2023-10-13T17:48:05.341Z,1.5
2023-10-13T17:50:02.920Z,1.6
2023-10-13T17:52:05.082Z,1.3
2023-10-13T17:54:03.968Z,1.6
2023-10-13T17:56:06.385Z,1.4
2023-10-13T17:58:02.466Z,1.6
2023-10-13T18:00:03.639Z,1.5
2023-10-13T18:02:03.732Z,1.5
2023-10-13T18:04:04.939Z,1.5
2023-10-13T18:06:04.006Z,1.6
2023-10-13T18:08:03.497Z,1.4
2023-10-13T18:10:02.306Z,1.6
2023-10-13T18:12:02.284Z,1.8
2023-10-13T18:14:02.470Z,1.5
2023-10-13T18:16:13.143Z,1.7
2023-10-13T18:18:02.454Z,1.7
2023-10-13T18:20:03.960Z,1.6
2023-10-13T18:22:03.910Z,1.7
2023-10-13T18:24:02.606Z,1.7
2023-10-13T18:26:03.260Z,2.4
2023-10-13T18:28:04.007Z,1.8
2023-10-13T18:30:02.295Z,1.9
2023-10-13T18:32:04.806Z,1.7
2023-10-13T18:34:03.014Z,1.8
2023-10-13T18:36:13.466Z,1.4
2023-10-13T18:38:04.960Z,1.7
2023-10-13T18:40:06.796Z,1.7
2023-10-13T18:42:05.738Z,1.7
2023-10-13T18:44:04.163Z,1.7
2023-10-13T18:46:06.964Z,1.5
2023-10-13T18:48:03.097Z,1.4
2023-10-13T18:50:02.825Z,1.6
2023-10-13T18:52:02.737Z,1.5
2023-10-13T18:54:02.293Z,1.5
2023-10-13T18:56:09.933Z,1.5
2023-10-13T18:58:02.330Z,1.6
2023-10-13T19:00:04.392Z,1.5
2023-10-13T19:02:02.454Z,1.6
2023-10-13T19:04:05.284Z,1.6
2023-10-13T19:06:04.014Z,1.7
2023-10-13T19:08:08.577Z,1.8
2023-10-13T19:10:08.575Z,1.6
2023-10-13T19:12:05.725Z,1.5
2023-10-13T19:14:03.744Z,1.5
2023-10-13T19:16:07.589Z,1.7
2023-10-13T19:18:02.627Z,1.7
2023-10-13T19:20:03.976Z,1.5
2023-10-13T19:22:06.820Z,1.5
2023-10-13T19:24:03.396Z,1.5
2023-10-13T19:26:04.541Z,1.6
2023-10-13T19:28:04.504Z,1.6
2023-10-13T19:30:06.933Z,1.5
2023-10-13T19:32:03.116Z,1.5
2023-10-13T19:34:05.279Z,1.6
2023-10-13T19:36:04.742Z,1.4
2023-10-13T19:38:02.366Z,1.4
2023-10-13T19:40:05.125Z,1.5
2023-10-13T19:42:02.597Z,1.6
2023-10-13T19:44:04.287Z,1.5
2023-10-13T19:46:06.313Z,1.7
2023-10-13T19:48:03.232Z,1.4
2023-10-13T19:50:02.310Z,1.4
2023-10-13T19:52:04.458Z,1.3
2023-10-13T19:54:04.411Z,1.6
2023-10-13T19:56:05.275Z,1.6
2023-10-13T19:58:02.396Z,1.8
2023-10-13T20:00:02.455Z,1.7
2023-10-13T20:02:06.002Z,1.6
2023-10-13T20:04:06.991Z,1.8
2023-10-13T20:06:02.799Z,1.5
2023-10-13T20:08:04.931Z,1.6
2023-10-13T20:10:03.481Z,1.6
2023-10-13T20:12:03.138Z,1.6
2023-10-13T20:14:03.302Z,1.7
2023-10-13T20:16:07.540Z,1.6
2023-10-13T20:18:08.602Z,1.7
2023-10-13T20:20:03.997Z,1.7
2023-10-13T20:22:10.388Z,1.7
2023-10-13T20:24:03.509Z,1.7
2023-10-13T20:26:04.095Z,1.8
2023-10-13T20:28:02.667Z,1.7
2023-10-13T20:30:08.991Z,1.5
2023-10-13T20:32:02.434Z,1.8
2023-10-13T20:34:02.554Z,1.5
2023-10-13T20:36:05.114Z,1.6
2023-10-13T20:38:02.958Z,1.6
2023-10-13T20:40:12.904Z,1.7
2023-10-13T20:42:04.885Z,1.7
2023-10-13T20:44:02.311Z,1.7
2023-10-13T20:46:06.519Z,1.6
2023-10-13T20:48:03.828Z,1.6
2023-10-13T20:50:03.314Z,1.7
2023-10-13T20:52:05.633Z,1.7
2023-10-13T20:54:02.529Z,1.9
2023-10-13T20:56:04.270Z,1.7
2023-10-13T20:58:03.163Z,1.7
2023-10-13T21:00:04.053Z,2.1
2023-10-13T21:02:04.965Z,1.6
2023-10-13T21:04:03.266Z,1.6
2023-10-13T21:06:02.530Z,1.6
2023-10-13T21:08:02.470Z,1.7
2023-10-13T21:10:02.472Z,1.8
2023-10-13T21:12:06.061Z,1.8
2023-10-13T21:14:02.922Z,1.8
2023-10-13T21:16:09.866Z,1.8
2023-10-13T21:18:06.696Z,1.8
2023-10-13T21:20:05.425Z,1.7
2023-10-13T21:22:08.473Z,1.6
2023-10-13T21:24:10.129Z,1.6
2023-10-13T21:26:03.786Z,1.7
2023-10-13T21:28:03.957Z,1.5
2023-10-13T21:30:02.500Z,1.7
2023-10-13T21:32:02.505Z,1.6
2023-10-13T21:34:06.480Z,1.8
2023-10-13T21:36:13.750Z,1.7
2023-10-13T21:38:02.310Z,1.6
2023-10-13T21:40:03.218Z,1.5
2023-10-13T21:42:02.572Z,1.7
2023-10-13T21:44:03.771Z,1.6
2023-10-13T21:46:06.163Z,1.7
2023-10-13T21:48:06.313Z,1.8
2023-10-13T21:50:04.119Z,1.6
2023-10-13T21:52:03.104Z,1.6
2023-10-13T21:54:02.617Z,1.5
2023-10-13T21:56:02.415Z,1.7
2023-10-13T21:58:02.354Z,1.5
2023-10-13T22:00:11.889Z,1.5
2023-10-13T22:02:02.961Z,1.7
2023-10-13T22:04:13.089Z,1.7
2023-10-13T22:06:02.337Z,1.5
2023-10-13T22:08:03.107Z,1.5
2023-10-13T22:10:02.379Z,1.6
2023-10-13T22:12:02.669Z,1.6
2023-10-13T22:14:04.528Z,1.6
2023-10-13T22:16:10.239Z,1.7
2023-10-13T22:18:03.737Z,1.5
2023-10-13T22:20:02.349Z,1.7
2023-10-13T22:22:02.357Z,1.5
2023-10-13T22:24:03.140Z,1.6
2023-10-13T22:26:02.476Z,1.4
2023-10-13T22:28:04.393Z,1.5
2023-10-13T22:30:07.294Z,1.8
2023-10-13T22:32:02.459Z,1.5
2023-10-13T22:34:05.255Z,1.6
2023-10-13T22:36:03.625Z,1.5
2023-10-13T22:38:02.333Z,1.5
2023-10-13T22:40:12.847Z,1.4
2023-10-13T22:42:03.199Z,1.6
2023-10-13T22:44:05.914Z,1.6
2023-10-13T22:46:03.456Z,1.4
2023-10-13T22:48:02.410Z,1.4
2023-10-13T22:50:03.696Z,1.4
2023-10-13T22:52:03.760Z,1.6
2023-10-13T22:54:04.143Z,1.5
2023-10-13T22:56:03.399Z,1.5
2023-10-13T22:58:09.925Z,1.7
2023-10-13T23:00:02.360Z,1.5
2023-10-13T23:02:02.374Z,1.5
2023-10-13T23:04:03.399Z,1.4
2023-10-13T23:06:03.821Z,1.4
2023-10-13T23:08:09.517Z,1.4
2023-10-13T23:10:02.512Z,1.3
2023-10-13T23:12:04.793Z,1.4
2023-10-13T23:14:02.564Z,1.5
2023-10-13T23:16:03.460Z,1.3
2023-10-13T23:18:02.657Z,1.5
2023-10-13T23:20:11.915Z,1.5
2023-10-13T23:22:06.344Z,1.5
2023-10-13T23:24:04.877Z,1.5
2023-10-13T23:26:03.766Z,1.4
2023-10-13T23:28:02.509Z,1.4
2023-10-13T23:30:03.314Z,1.5
2023-10-13T23:32:02.386Z,1.4
2023-10-13T23:34:03.933Z,1.5
2023-10-13T23:36:03.542Z,1.5
2023-10-13T23:38:12.957Z,1.5
2023-10-13T23:40:02.759Z,1.6
2023-10-13T23:42:07.685Z,1.7
2023-10-13T23:44:11.913Z,1.5
2023-10-13T23:46:05.751Z,1.5
2023-10-13T23:48:03.632Z,1.3
2023-10-13T23:50:08.359Z,1.6
2023-10-13T23:52:03.196Z,1.4
2023-10-13T23:54:12.947Z,1.6
2023-10-13T23:56:09.508Z,1.9
2023-10-13T23:58:06.300Z,1.6
